createdAt,value
2023-11-23T00:02:37.340Z,59.00
2023-11-23T00:05:22.440Z,59.12
2023-11-23T00:08:07.524Z,58.50
2023-11-23T00:10:52.668Z,57.95
2023-11-23T00:13:37.819Z,58.01
2023-11-23T00:16:22.872Z,57.87
2023-11-23T00:19:08.029Z,57.79
2023-11-23T00:21:53.164Z,57.42
2023-11-23T00:24:38.423Z,57.77
2023-11-23T00:27:23.409Z,57.58
2023-11-23T00:30:08.525Z,56.38
2023-11-23T00:32:53.671Z,56.67
2023-11-23T00:35:38.783Z,56.88
2023-11-23T00:38:23.831Z,56.91
2023-11-23T00:41:08.807Z,56.50
2023-11-23T00:43:54.008Z,56.43
2023-11-23T00:46:39.070Z,56.53
2023-11-23T00:49:24.235Z,56.60
2023-11-23T00:52:09.323Z,57.07
2023-11-23T00:54:54.412Z,56.94
2023-11-23T00:57:39.624Z,57.19
2023-11-23T01:00:24.764Z,57.06
2023-11-23T01:03:09.986Z,56.73
2023-11-23T01:05:55.002Z,56.18
2023-11-23T01:08:40.114Z,56.13
2023-11-23T01:11:25.240Z,56.46
2023-11-23T01:14:10.279Z,57.05
2023-11-23T01:16:55.449Z,56.63
2023-11-23T01:19:40.555Z,57.55
2023-11-23T01:22:25.766Z,56.99
2023-11-23T01:25:10.849Z,56.90
2023-11-23T01:34:01.826Z,57.52
2023-11-23T01:36:46.925Z,56.83
2023-11-23T01:39:31.955Z,56.81
2023-11-23T01:42:17.206Z,56.81
2023-11-23T01:45:02.480Z,56.71
2023-11-23T01:47:47.725Z,56.42
2023-11-23T01:50:32.544Z,57.24
2023-11-23T01:53:17.736Z,56.97
2023-11-23T01:56:02.919Z,56.99
2023-11-23T01:58:48.036Z,57.55
2023-11-23T02:01:33.431Z,57.03
2023-11-23T02:04:18.531Z,57.19
2023-11-23T02:07:03.530Z,56.70
2023-11-23T02:09:48.762Z,56.34
2023-11-23T02:12:33.837Z,56.28
2023-11-23T02:15:19.205Z,55.57
2023-11-23T02:18:04.380Z,55.68
2023-11-23T02:20:49.402Z,55.24
2023-11-23T02:23:34.556Z,55.61
2023-11-23T02:26:19.658Z,54.68
2023-11-23T02:29:04.908Z,55.08
2023-11-23T02:31:49.981Z,54.87
2023-11-23T02:34:35.166Z,54.26
2023-11-23T02:37:20.315Z,54.18
2023-11-23T02:40:05.474Z,53.70
2023-11-23T02:42:50.563Z,53.63
2023-11-23T02:45:35.693Z,54.33
2023-11-23T02:48:20.865Z,54.06
2023-11-23T02:51:05.993Z,54.57
2023-11-23T02:53:51.208Z,55.46
2023-11-23T02:56:36.232Z,56.27
2023-11-23T02:59:21.407Z,56.11
2023-11-23T03:02:06.530Z,55.46
2023-11-23T03:04:51.541Z,55.11
2023-11-23T03:07:36.701Z,55.28
2023-11-23T03:10:21.789Z,55.90
2023-11-23T03:13:07.053Z,55.44
2023-11-23T03:15:52.088Z,55.20
2023-11-23T03:18:37.370Z,55.56
2023-11-23T03:21:22.368Z,55.65
2023-11-23T03:24:07.531Z,56.34
2023-11-23T03:26:52.682Z,55.84
2023-11-23T03:29:37.701Z,56.14
2023-11-23T03:32:22.918Z,56.19
2023-11-23T03:35:07.984Z,55.90
2023-11-23T03:37:53.068Z,56.07
2023-11-23T03:40:38.142Z,55.34
2023-11-23T03:43:23.388Z,55.21
2023-11-23T03:46:08.434Z,54.26
2023-11-23T03:48:53.418Z,54.48
2023-11-23T03:51:38.544Z,53.52
2023-11-23T03:54:23.473Z,53.75
2023-11-23T03:57:08.546Z,52.68
2023-11-23T03:59:53.581Z,53.07
2023-11-23T04:02:38.763Z,52.73
2023-11-23T04:05:23.792Z,52.20
2023-11-23T04:08:08.857Z,49.37
2023-11-23T04:10:54.112Z,50.73
2023-11-23T04:13:39.104Z,51.35
2023-11-23T04:16:24.146Z,51.75
2023-11-23T04:19:09.169Z,52.70
2023-11-23T04:21:54.311Z,54.00
2023-11-23T04:24:39.423Z,53.61
2023-11-23T04:27:24.576Z,53.20
2023-11-23T04:30:09.695Z,53.26
2023-11-23T04:32:54.881Z,53.04
2023-11-23T04:35:40.107Z,53.54
2023-11-23T04:38:25.050Z,53.17
2023-11-23T04:41:10.335Z,52.63
2023-11-23T04:43:55.332Z,53.82
2023-11-23T04:46:40.584Z,53.22
2023-11-23T04:49:25.764Z,53.66
2023-11-23T04:52:10.889Z,52.41
2023-11-23T04:54:56.162Z,52.37
2023-11-23T04:57:41.221Z,52.35
2023-11-23T05:00:26.761Z,52.33
2023-11-23T05:03:12.028Z,53.38
2023-11-23T05:05:57.186Z,54.65
2023-11-23T05:08:42.286Z,55.36
2023-11-23T05:11:27.239Z,56.03
2023-11-23T05:14:12.430Z,57.25
2023-11-23T05:16:57.328Z,56.44
2023-11-23T05:19:43.362Z,55.38
2023-11-23T05:22:28.502Z,55.46
2023-11-23T05:25:13.585Z,54.72
2023-11-23T05:27:58.711Z,55.19
2023-11-23T05:30:43.857Z,54.68
2023-11-23T05:33:28.952Z,52.92
2023-11-23T05:36:13.929Z,53.10
2023-11-23T05:38:59.024Z,52.57
2023-11-23T05:41:44.093Z,52.33
2023-11-23T05:44:29.320Z,51.73
2023-11-23T05:47:14.484Z,51.20
2023-11-23T05:49:59.587Z,51.26
2023-11-23T05:52:44.742Z,51.77
2023-11-23T05:55:29.829Z,51.70
2023-11-23T05:58:14.926Z,51.36
2023-11-23T06:01:07.550Z,52.57
2023-11-23T06:03:57.378Z,52.56
2023-11-23T06:06:42.267Z,53.46
2023-11-23T06:09:27.254Z,52.66
2023-11-23T06:12:12.311Z,52.68
2023-11-23T06:14:57.428Z,52.36
2023-11-23T06:17:42.594Z,51.71
2023-11-23T06:20:27.623Z,52.44
2023-11-23T06:23:12.683Z,52.52
2023-11-23T06:25:57.715Z,52.19
2023-11-23T06:28:43.015Z,51.61
2023-11-23T06:31:27.902Z,51.88
2023-11-23T06:34:13.029Z,52.23
2023-11-23T06:36:58.220Z,52.29
2023-11-23T06:39:43.362Z,52.43
2023-11-23T06:42:28.620Z,52.48
2023-11-23T06:45:13.547Z,53.53
2023-11-23T06:47:58.866Z,53.84
2023-11-23T06:50:43.884Z,53.43
2023-11-23T06:53:29.064Z,53.99
2023-11-23T06:56:14.157Z,52.97
2023-11-23T06:58:59.229Z,53.48
2023-11-23T07:01:44.590Z,53.03
2023-11-23T07:04:29.684Z,53.03
2023-11-23T07:07:15.019Z,52.99
2023-11-23T07:10:00.041Z,53.72
2023-11-23T07:12:45.049Z,53.10
2023-11-23T07:15:30.212Z,52.70
2023-11-23T07:18:15.628Z,52.51
2023-11-23T07:21:02.601Z,52.37
2023-11-23T07:23:47.601Z,52.13
2023-11-23T07:26:32.857Z,52.15
2023-11-23T07:29:17.828Z,52.89
2023-11-23T07:32:02.773Z,52.19
2023-11-23T07:34:47.896Z,52.56
2023-11-23T07:37:32.957Z,52.16
2023-11-23T07:40:18.172Z,51.84
2023-11-23T07:43:03.186Z,52.22
2023-11-23T07:45:48.214Z,51.74
2023-11-23T07:48:33.218Z,51.46
2023-11-23T07:51:18.328Z,50.35
2023-11-23T07:54:03.321Z,50.83
2023-11-23T07:56:48.493Z,51.18
2023-11-23T07:59:33.684Z,51.65
2023-11-23T08:02:18.806Z,51.01
2023-11-23T08:05:04.098Z,50.29
2023-11-23T08:07:49.119Z,50.26
2023-11-23T08:10:34.409Z,50.22
2023-11-23T08:13:19.542Z,49.42
2023-11-23T08:16:04.735Z,47.85
2023-11-23T08:18:50.590Z,49.09
2023-11-23T08:21:35.577Z,46.47
2023-11-23T08:24:20.696Z,47.00
2023-11-23T08:27:05.793Z,44.96
2023-11-23T08:29:51.022Z,45.70
2023-11-23T08:32:36.186Z,43.65
2023-11-23T08:35:21.307Z,44.25
2023-11-23T08:38:06.461Z,42.92
2023-11-23T08:40:51.496Z,43.78
2023-11-23T08:43:36.641Z,43.66
2023-11-23T08:46:21.619Z,43.25
2023-11-23T08:49:06.880Z,44.65
2023-11-23T08:51:52.038Z,45.46
2023-11-23T08:54:37.015Z,45.58
2023-11-23T08:57:22.415Z,45.71
2023-11-23T09:00:07.270Z,45.30
2023-11-23T09:02:52.515Z,43.88
2023-11-23T09:05:37.543Z,43.98
2023-11-23T09:08:22.631Z,44.15
2023-11-23T09:11:07.729Z,44.97
2023-11-23T09:13:52.818Z,42.69
2023-11-23T09:16:37.897Z,42.91
2023-11-23T09:19:23.059Z,44.33
2023-11-23T09:22:08.218Z,43.34
2023-11-23T09:24:53.342Z,44.92
2023-11-23T09:27:38.538Z,45.09
2023-11-23T09:30:23.580Z,45.53
2023-11-23T09:33:08.753Z,47.46
2023-11-23T09:35:53.772Z,47.27
2023-11-23T09:38:38.894Z,45.29
2023-11-23T09:41:24.060Z,44.62
2023-11-23T09:44:09.015Z,43.61
2023-11-23T09:46:54.174Z,44.22
2023-11-23T09:49:39.084Z,45.77
2023-11-23T09:52:24.269Z,43.79
2023-11-23T09:55:09.565Z,42.38
2023-11-23T09:57:54.528Z,41.81
2023-11-23T10:00:39.703Z,41.37
2023-11-23T10:03:24.693Z,40.99
2023-11-23T10:06:09.958Z,41.11
2023-11-23T10:08:54.997Z,40.21
2023-11-23T10:11:40.213Z,39.78
2023-11-23T10:14:25.140Z,40.15
2023-11-23T10:17:10.138Z,39.12
2023-11-23T10:19:55.224Z,38.93
2023-11-23T10:22:40.188Z,39.65
2023-11-23T10:25:25.361Z,40.09
2023-11-23T10:28:10.371Z,40.09
2023-11-23T10:30:55.608Z,39.48
2023-11-23T10:33:40.690Z,38.95
2023-11-23T10:36:25.774Z,36.95
2023-11-23T10:39:10.975Z,35.48
2023-11-23T10:41:55.942Z,36.21
2023-11-23T10:44:41.060Z,36.45
2023-11-23T10:47:26.165Z,35.99
2023-11-23T10:50:11.234Z,34.30
2023-11-23T10:52:56.299Z,34.86
2023-11-23T10:55:41.394Z,37.36
2023-11-23T10:58:26.543Z,36.41
2023-11-23T11:01:11.634Z,39.27
2023-11-23T11:03:56.997Z,38.93
2023-11-23T11:06:42.006Z,43.88
2023-11-23T11:09:30.170Z,43.10
2023-11-23T11:12:15.903Z,43.09
2023-11-23T11:15:01.002Z,43.87
2023-11-23T11:17:46.198Z,43.03
2023-11-23T11:20:31.184Z,42.57
2023-11-23T11:23:16.317Z,41.39
2023-11-23T11:26:01.377Z,41.33
2023-11-23T11:28:46.476Z,40.81
2023-11-23T11:31:31.603Z,41.26
2023-11-23T11:34:16.643Z,41.75
2023-11-23T11:37:01.777Z,42.70
2023-11-23T11:39:46.980Z,43.12
2023-11-23T11:42:32.325Z,43.72
2023-11-23T11:45:17.344Z,43.53
2023-11-23T11:48:02.553Z,43.47
2023-11-23T11:50:47.709Z,44.38
2023-11-23T11:53:32.781Z,43.50
2023-11-23T11:56:17.869Z,43.83
2023-11-23T11:59:02.879Z,43.85
2023-11-23T12:01:48.005Z,44.76
2023-11-23T12:04:33.088Z,43.98
2023-11-23T12:07:17.986Z,43.21
2023-11-23T12:10:03.061Z,43.52
2023-11-23T12:12:48.220Z,42.36
2023-11-23T12:15:33.540Z,43.00
2023-11-23T12:18:18.429Z,42.94
2023-11-23T12:21:03.597Z,43.22
2023-11-23T12:23:48.538Z,43.45
2023-11-23T12:26:33.940Z,43.22
2023-11-23T12:29:18.912Z,43.13
2023-11-23T12:32:03.941Z,42.76
2023-11-23T12:34:49.110Z,43.36
2023-11-23T12:37:34.094Z,43.16
2023-11-23T12:40:19.214Z,43.01
2023-11-23T12:43:04.261Z,42.92
2023-11-23T12:45:49.438Z,42.86
2023-11-23T12:48:34.477Z,42.47
2023-11-23T12:51:19.609Z,42.43
2023-11-23T12:54:04.751Z,41.77
2023-11-23T12:56:49.656Z,42.97
2023-11-23T12:59:34.919Z,43.62
2023-11-23T13:02:19.956Z,43.94
2023-11-23T13:05:05.100Z,43.44
2023-11-23T13:07:50.074Z,43.38
2023-11-23T13:10:35.256Z,43.33
2023-11-23T13:13:20.542Z,42.65
2023-11-23T13:16:05.547Z,42.54
2023-11-23T13:19:05.937Z,43.94
2023-11-23T13:21:55.327Z,44.71
2023-11-23T13:24:40.360Z,45.02
2023-11-23T13:27:26.894Z,44.80
2023-11-23T13:30:13.772Z,45.07
2023-11-23T13:32:58.982Z,44.57
2023-11-23T13:35:44.359Z,43.63
2023-11-23T13:38:29.231Z,43.45
2023-11-23T13:41:14.343Z,43.91
2023-11-23T13:43:59.322Z,44.19
2023-11-23T13:46:44.490Z,43.50
2023-11-23T13:49:29.597Z,43.28
2023-11-23T13:52:14.744Z,43.22
2023-11-23T13:54:59.882Z,42.63
2023-11-23T13:57:44.897Z,43.04
2023-11-23T14:00:30.113Z,43.35
2023-11-23T14:03:15.126Z,43.96
2023-11-23T14:06:00.262Z,43.89
2023-11-23T14:08:45.452Z,43.72
2023-11-23T14:11:30.433Z,44.00
2023-11-23T14:14:15.486Z,43.77
2023-11-23T14:17:00.612Z,43.63
2023-11-23T14:19:45.822Z,43.47
2023-11-23T14:22:30.844Z,44.97
2023-11-23T14:25:16.080Z,45.31
2023-11-23T14:28:01.052Z,45.35
2023-11-23T14:30:46.190Z,44.81
2023-11-23T14:33:31.235Z,44.34
2023-11-23T14:36:16.388Z,44.39
2023-11-23T14:39:01.408Z,44.14
2023-11-23T14:41:46.474Z,44.00
2023-11-23T14:44:31.713Z,43.92
2023-11-23T14:47:16.685Z,43.53
2023-11-23T14:50:01.735Z,43.40
2023-11-23T14:52:46.770Z,44.94
2023-11-23T14:55:31.997Z,45.41
2023-11-23T14:58:17.061Z,44.23
2023-11-23T15:01:02.003Z,44.40
2023-11-23T15:03:47.045Z,43.08
2023-11-23T15:06:32.129Z,43.16
2023-11-23T15:09:17.230Z,42.09
2023-11-23T15:12:02.275Z,42.32
2023-11-23T15:14:47.514Z,42.56
2023-11-23T15:17:32.514Z,43.08
2023-11-23T15:20:17.574Z,42.45
2023-11-23T15:23:02.852Z,42.33
2023-11-23T15:25:47.824Z,41.86
2023-11-23T15:28:33.048Z,41.11
2023-11-23T15:31:18.093Z,41.26
2023-11-23T15:34:03.244Z,41.58
2023-11-23T15:36:48.207Z,41.76
2023-11-23T15:39:33.342Z,43.08
2023-11-23T15:42:18.621Z,42.28
2023-11-23T15:45:03.782Z,41.58
2023-11-23T15:47:48.820Z,42.47
2023-11-23T15:50:33.883Z,42.43
2023-11-23T15:53:19.095Z,41.95
2023-11-23T15:56:04.228Z,41.74
2023-11-23T15:58:49.316Z,43.25
2023-11-23T16:01:34.488Z,42.96
2023-11-23T16:04:19.642Z,43.22
2023-11-23T16:07:04.660Z,42.90
2023-11-23T16:09:49.748Z,42.12
2023-11-23T16:12:35.000Z,41.51
2023-11-23T16:15:20.180Z,41.28
2023-11-23T16:18:05.313Z,42.22
2023-11-23T16:20:50.442Z,41.28
2023-11-23T16:23:35.553Z,42.23
2023-11-23T16:26:20.598Z,40.56
2023-11-23T16:29:05.650Z,40.34
2023-11-23T16:31:50.810Z,40.83
2023-11-23T16:34:35.826Z,41.34
2023-11-23T16:37:21.125Z,42.83
2023-11-23T16:40:06.247Z,42.92
2023-11-23T16:42:51.375Z,42.37
2023-11-23T16:45:36.676Z,42.36
2023-11-23T16:48:21.821Z,43.09
2023-11-23T16:51:07.178Z,43.04
2023-11-23T16:53:55.347Z,43.00
2023-11-23T16:56:40.321Z,43.02
2023-11-23T16:59:25.530Z,42.69
2023-11-23T17:02:10.646Z,41.73
2023-11-23T17:04:57.095Z,41.49
2023-11-23T17:07:43.555Z,41.72
2023-11-23T17:10:28.627Z,42.30
2023-11-23T17:13:13.680Z,41.91
2023-11-23T17:15:58.879Z,42.72
2023-11-23T17:18:44.065Z,43.45
2023-11-23T17:21:29.254Z,42.70
2023-11-23T17:24:14.277Z,41.91
2023-11-23T17:26:59.312Z,41.53
2023-11-23T17:29:44.437Z,42.02
2023-11-23T17:32:29.446Z,42.53
2023-11-23T17:35:14.397Z,41.87
2023-11-23T17:37:59.560Z,41.85
2023-11-23T17:40:44.536Z,41.00
2023-11-23T17:43:29.724Z,41.30
2023-11-23T17:46:14.803Z,40.94
2023-11-23T17:48:59.775Z,41.59
2023-11-23T17:51:45.078Z,41.63
2023-11-23T17:54:30.060Z,41.21
2023-11-23T17:57:14.945Z,41.12
2023-11-23T18:00:00.036Z,39.96
2023-11-23T18:02:45.267Z,40.26
2023-11-23T18:05:30.367Z,40.20
2023-11-23T18:08:15.527Z,40.15
2023-11-23T18:11:00.750Z,40.46
2023-11-23T18:13:45.808Z,41.06
2023-11-23T18:16:30.942Z,40.65
2023-11-23T18:19:15.937Z,40.85
2023-11-23T18:22:01.028Z,40.92
2023-11-23T18:24:46.157Z,40.95
2023-11-23T18:27:31.410Z,41.39
2023-11-23T18:30:16.562Z,40.99
2023-11-23T18:33:01.685Z,41.34
2023-11-23T18:35:46.869Z,40.98
2023-11-23T18:38:31.960Z,41.17
2023-11-23T18:41:17.037Z,40.58
2023-11-23T18:44:02.043Z,41.24
2023-11-23T18:46:47.225Z,42.05
2023-11-23T18:49:32.270Z,42.51
2023-11-23T18:52:17.433Z,42.16
2023-11-23T18:55:02.624Z,42.45
2023-11-23T18:57:47.625Z,43.26
2023-11-23T19:00:32.696Z,42.62
2023-11-23T19:03:17.864Z,42.60
2023-11-23T19:06:02.856Z,43.70
2023-11-23T19:08:48.100Z,43.54
2023-11-23T19:11:33.136Z,44.21
2023-11-23T19:14:18.256Z,43.46
2023-11-23T19:17:03.285Z,43.54
2023-11-23T19:19:48.369Z,43.86
2023-11-23T19:22:34.554Z,43.88
2023-11-23T19:25:19.520Z,43.80
2023-11-23T19:28:04.730Z,44.24
2023-11-23T19:30:49.938Z,43.42
2023-11-23T19:33:35.054Z,42.77
2023-11-23T19:36:19.969Z,43.45
2023-11-23T19:39:05.135Z,43.87
2023-11-23T19:41:50.121Z,45.01
2023-11-23T19:44:35.150Z,45.01
2023-11-23T19:47:20.202Z,44.33
2023-11-23T19:50:05.237Z,43.28
2023-11-23T19:52:50.471Z,43.02
2023-11-23T19:55:35.476Z,43.00
2023-11-23T19:58:20.533Z,43.63
2023-11-23T20:01:05.573Z,44.27
2023-11-23T20:03:50.861Z,43.01
2023-11-23T20:06:35.906Z,42.54
2023-11-23T20:09:20.857Z,41.77
2023-11-23T20:12:05.911Z,42.59
2023-11-23T20:14:51.054Z,41.71
2023-11-23T20:17:36.213Z,41.81
2023-11-23T20:20:21.274Z,41.12
2023-11-23T20:23:06.472Z,41.78
2023-11-23T20:25:51.433Z,42.14
2023-11-23T20:28:36.681Z,40.88
2023-11-23T20:31:21.658Z,41.66
2023-11-23T20:34:06.594Z,41.69
2023-11-23T20:36:51.844Z,41.83
2023-11-23T20:39:36.814Z,42.12
2023-11-23T20:42:21.964Z,41.83
2023-11-23T20:45:07.007Z,42.33
2023-11-23T20:47:52.145Z,42.08
2023-11-23T20:50:37.049Z,42.06
2023-11-23T20:53:22.153Z,42.29
2023-11-23T20:56:07.339Z,42.29
2023-11-23T20:58:52.460Z,42.42
2023-11-23T21:01:37.675Z,41.57
2023-11-23T21:04:27.245Z,42.21
2023-11-23T21:07:14.256Z,42.31
2023-11-23T21:09:59.545Z,41.65
2023-11-23T21:12:44.717Z,42.33
2023-11-23T21:15:29.740Z,41.39
2023-11-23T21:18:15.074Z,42.09
2023-11-23T21:21:00.043Z,41.78
2023-11-23T21:23:45.384Z,42.17
2023-11-23T21:26:30.284Z,41.62
2023-11-23T21:29:15.495Z,41.76
2023-11-23T21:32:00.592Z,41.68
2023-11-23T21:34:45.716Z,41.63
2023-11-23T21:37:30.950Z,41.35
2023-11-23T21:40:16.025Z,41.60
2023-11-23T21:43:01.263Z,41.70
2023-11-23T21:45:46.185Z,42.19
2023-11-23T21:48:31.463Z,42.03
2023-11-23T21:51:16.604Z,42.24
2023-11-23T21:54:01.664Z,42.66
2023-11-23T21:56:46.866Z,42.38
2023-11-23T21:59:31.979Z,42.78
2023-11-23T22:02:17.075Z,42.66
2023-11-23T22:05:02.149Z,42.41
2023-11-23T22:07:47.176Z,42.65
2023-11-23T22:10:32.284Z,42.45
2023-11-23T22:13:17.490Z,43.11
2023-11-23T22:16:02.630Z,42.57
2023-11-23T22:18:47.749Z,42.85
2023-11-23T22:21:32.847Z,42.28
2023-11-23T22:24:17.873Z,41.92
2023-11-23T22:27:03.101Z,42.36
2023-11-23T22:29:48.219Z,42.16
2023-11-23T22:32:33.535Z,42.73
2023-11-23T22:35:18.456Z,42.83
2023-11-23T22:38:03.510Z,43.00
2023-11-23T22:40:48.671Z,44.12
2023-11-23T22:43:33.938Z,43.91
2023-11-23T22:46:19.126Z,42.94
2023-11-23T22:49:04.095Z,43.46
2023-11-23T22:51:49.325Z,42.72
2023-11-23T22:54:34.499Z,43.29
2023-11-23T22:57:19.645Z,42.41
2023-11-23T23:00:04.808Z,42.45
2023-11-23T23:02:50.081Z,41.87
2023-11-23T23:05:35.122Z,42.71
2023-11-23T23:08:20.222Z,42.07
2023-11-23T23:11:05.428Z,42.56
2023-11-23T23:13:50.527Z,42.33
2023-11-23T23:16:35.778Z,42.14
2023-11-23T23:19:20.905Z,42.85
2023-11-23T23:22:16.856Z,42.84
2023-11-23T23:25:09.171Z,42.73
2023-11-23T23:27:54.073Z,42.61
2023-11-23T23:30:39.090Z,42.42
2023-11-23T23:33:24.369Z,43.04
2023-11-23T23:36:09.314Z,42.39
2023-11-23T23:38:54.449Z,42.21
2023-11-23T23:41:39.579Z,43.08
2023-11-23T23:44:24.852Z,43.96
2023-11-23T23:47:09.969Z,43.64
2023-11-23T23:49:54.734Z,44.07
2023-11-23T23:52:39.977Z,43.46
2023-11-23T23:55:25.051Z,44.36
2023-11-23T23:58:10.209Z,44.02
